TJIG/SIG METAR and TAF weather

Enter ICAO airport designator
Station Type Date Time Source
TJIG METAR 2022/01/26 13:45 UTC NOAA

TJIG 261345Z 11006KT 10SM SCT045 27/20 A3008


Station Type Date Time Source
TJIG Decoded METAR 2022/01/26 13:45 UTC NOAA

Station name not available
Jan 26, 2022 - 08:45 AM EST / 2022.01.26 1345 UTC
Wind: from the ESE (110 degrees) at 7 MPH (6 KT):0
Visibility: 10 mile(s):0
Sky conditions: partly cloudy
Temperature: 80 F (27 C)
Dew Point: 68 F (20 C)
Relative Humidity: 65%
Pressure (altimeter): 30.08 in. Hg (1018 hPa)
ob: TJIG 261345Z 11006KT 10SM SCT045 27/20 A3008
cycle: 14

Station Type Date Time Source
TJIG TAF UTC NOAA

Error!

Example: see airport list